sensor_id;sensor_type;location;lat;lon;timestamp;P1;durP1;ratioP1;P2;durP2;ratioP2
13959;SDS011;7052;51.050;3.716;2023-01-16T00:01:52;2.97;;;1.80;;
13959;SDS011;7052;51.050;3.716;2023-01-16T00:04:20;4.77;;;1.83;;
13959;SDS011;7052;51.050;3.716;2023-01-16T00:06:49;7.40;;;2.10;;
13959;SDS011;7052;51.050;3.716;2023-01-16T00:09:15;4.00;;;1.70;;
13959;SDS011;7052;51.050;3.716;2023-01-16T00:11:44;2.47;;;1.43;;
13959;SDS011;7052;51.050;3.716;2023-01-16T00:14:11;2.60;;;1.47;;
13959;SDS011;7052;51.050;3.716;2023-01-16T00:16:39;3.63;;;1.60;;
13959;SDS011;7052;51.050;3.716;2023-01-16T00:19:06;4.87;;;1.60;;
13959;SDS011;7052;51.050;3.716;2023-01-16T00:21:33;3.53;;;1.53;;
13959;SDS011;7052;51.050;3.716;2023-01-16T00:24:00;5.60;;;1.90;;
13959;SDS011;7052;51.050;3.716;2023-01-16T00:26:27;4.20;;;1.57;;
13959;SDS011;7052;51.050;3.716;2023-01-16T00:28:56;2.37;;;1.40;;
13959;SDS011;7052;51.050;3.716;2023-01-16T00:31:23;3.93;;;1.63;;
13959;SDS011;7052;51.050;3.716;2023-01-16T00:33:51;4.60;;;1.80;;
13959;SDS011;7052;51.050;3.716;2023-01-16T00:36:18;3.90;;;1.70;;
13959;SDS011;7052;51.050;3.716;2023-01-16T00:38:45;3.90;;;1.90;;
13959;SDS011;7052;51.050;3.716;2023-01-16T00:41:13;3.10;;;2.07;;
13959;SDS011;7052;51.050;3.716;2023-01-16T00:43:40;3.83;;;2.10;;
13959;SDS011;7052;51.050;3.716;2023-01-16T00:46:10;6.87;;;2.57;;
13959;SDS011;7052;51.050;3.716;2023-01-16T00:48:37;5.20;;;2.60;;
13959;SDS011;7052;51.050;3.716;2023-01-16T00:51:04;3.57;;;2.37;;
13959;SDS011;7052;51.050;3.716;2023-01-16T00:53:31;4.43;;;2.30;;
13959;SDS011;7052;51.050;3.716;2023-01-16T00:55:58;5.23;;;2.30;;
13959;SDS011;7052;51.050;3.716;2023-01-16T00:58:25;5.20;;;2.60;;
13959;SDS011;7052;51.050;3.716;2023-01-16T01:00:53;7.10;;;2.43;;
13959;SDS011;7052;51.050;3.716;2023-01-16T01:03:22;3.23;;;2.10;;
13959;SDS011;7052;51.050;3.716;2023-01-16T01:05:49;3.93;;;2.10;;
13959;SDS011;7052;51.050;3.716;2023-01-16T01:08:16;3.53;;;2.10;;
13959;SDS011;7052;51.050;3.716;2023-01-16T01:10:44;4.17;;;1.97;;
13959;SDS011;7052;51.050;3.716;2023-01-16T01:13:12;5.63;;;1.73;;
13959;SDS011;7052;51.050;3.716;2023-01-16T01:15:39;4.43;;;1.77;;
13959;SDS011;7052;51.050;3.716;2023-01-16T01:18:06;3.53;;;1.80;;
13959;SDS011;7052;51.050;3.716;2023-01-16T01:20:35;4.23;;;1.73;;
13959;SDS011;7052;51.050;3.716;2023-01-16T01:23:02;2.60;;;1.50;;
13959;SDS011;7052;51.050;3.716;2023-01-16T01:25:29;3.30;;;1.40;;
13959;SDS011;7052;51.050;3.716;2023-01-16T01:27:56;3.60;;;1.53;;
13959;SDS011;7052;51.050;3.716;2023-01-16T01:30:24;4.17;;;1.60;;
13959;SDS011;7052;51.050;3.716;2023-01-16T01:32:51;2.47;;;1.50;;
13959;SDS011;7052;51.050;3.716;2023-01-16T01:35:18;4.53;;;1.73;;
13959;SDS011;7052;51.050;3.716;2023-01-16T01:37:46;3.73;;;1.50;;
13959;SDS011;7052;51.050;3.716;2023-01-16T01:40:14;3.70;;;1.43;;
13959;SDS011;7052;51.050;3.716;2023-01-16T01:42:43;3.97;;;1.50;;
13959;SDS011;7052;51.050;3.716;2023-01-16T01:45:14;2.47;;;1.40;;
13959;SDS011;7052;51.050;3.716;2023-01-16T01:47:46;5.03;;;1.70;;
13959;SDS011;7052;51.050;3.716;2023-01-16T01:50:20;5.27;;;1.50;;
13959;SDS011;7052;51.050;3.716;2023-01-16T01:52:54;4.00;;;1.60;;
13959;SDS011;7052;51.050;3.716;2023-01-16T01:55:24;2.90;;;1.80;;
13959;SDS011;7052;51.050;3.716;2023-01-16T01:57:52;3.37;;;1.70;;
13959;SDS011;7052;51.050;3.716;2023-01-16T02:00:23;2.40;;;1.63;;
13959;SDS011;7052;51.050;3.716;2023-01-16T02:02:53;2.67;;;1.70;;
13959;SDS011;7052;51.050;3.716;2023-01-16T02:05:28;3.30;;;1.80;;
13959;SDS011;7052;51.050;3.716;2023-01-16T02:08:01;2.90;;;1.60;;
13959;SDS011;7052;51.050;3.716;2023-01-16T02:10:33;2.83;;;1.80;;
13959;SDS011;7052;51.050;3.716;2023-01-16T02:13:04;3.90;;;1.87;;
13959;SDS011;7052;51.050;3.716;2023-01-16T02:15:30;4.60;;;1.97;;
13959;SDS011;7052;51.050;3.716;2023-01-16T02:17:57;5.13;;;1.93;;
13959;SDS011;7052;51.050;3.716;2023-01-16T02:20:48;3.80;;;1.83;;
13959;SDS011;7052;51.050;3.716;2023-01-16T02:23:33;3.30;;;1.80;;
13959;SDS011;7052;51.050;3.716;2023-01-16T02:26:38;3.27;;;1.80;;
13959;SDS011;7052;51.050;3.716;2023-01-16T02:29:30;4.07;;;1.80;;
13959;SDS011;7052;51.050;3.716;2023-01-16T02:32:16;4.13;;;2.10;;
13959;SDS011;7052;51.050;3.716;2023-01-16T02:35:01;5.33;;;2.00;;
13959;SDS011;7052;51.050;3.716;2023-01-16T02:37:40;7.07;;;2.33;;
13959;SDS011;7052;51.050;3.716;2023-01-16T02:40:27;4.47;;;2.27;;
13959;SDS011;7052;51.050;3.716;2023-01-16T02:43:07;5.70;;;2.20;;
13959;SDS011;7052;51.050;3.716;2023-01-16T02:45:42;6.00;;;2.33;;
13959;SDS011;7052;51.050;3.716;2023-01-16T02:48:18;4.87;;;2.30;;
13959;SDS011;7052;51.050;3.716;2023-01-16T02:50:54;5.37;;;2.43;;
13959;SDS011;7052;51.050;3.716;2023-01-16T02:53:29;5.40;;;2.00;;
13959;SDS011;7052;51.050;3.716;2023-01-16T02:56:02;6.50;;;2.20;;
13959;SDS011;7052;51.050;3.716;2023-01-16T02:58:33;7.83;;;2.40;;
13959;SDS011;7052;51.050;3.716;2023-01-16T03:01:05;6.57;;;2.20;;
13959;SDS011;7052;51.050;3.716;2023-01-16T03:03:40;4.57;;;2.17;;
13959;SDS011;7052;51.050;3.716;2023-01-16T03:06:24;6.27;;;2.40;;
13959;SDS011;7052;51.050;3.716;2023-01-16T03:09:08;6.00;;;2.13;;
13959;SDS011;7052;51.050;3.716;2023-01-16T03:11:52;6.63;;;2.37;;
13959;SDS011;7052;51.050;3.716;2023-01-16T03:14:46;7.10;;;2.60;;
13959;SDS011;7052;51.050;3.716;2023-01-16T03:17:22;7.30;;;2.13;;
13959;SDS011;7052;51.050;3.716;2023-01-16T03:20:13;5.60;;;2.00;;
13959;SDS011;7052;51.050;3.716;2023-01-16T03:22:50;5.23;;;2.20;;
13959;SDS011;7052;51.050;3.716;2023-01-16T03:25:24;4.00;;;1.90;;
13959;SDS011;7052;51.050;3.716;2023-01-16T03:27:58;6.53;;;2.10;;
13959;SDS011;7052;51.050;3.716;2023-01-16T03:30:34;4.13;;;2.00;;
13959;SDS011;7052;51.050;3.716;2023-01-16T03:33:16;5.30;;;2.47;;
13959;SDS011;7052;51.050;3.716;2023-01-16T03:35:54;4.00;;;2.17;;
13959;SDS011;7052;51.050;3.716;2023-01-16T03:38:24;5.93;;;2.07;;
13959;SDS011;7052;51.050;3.716;2023-01-16T03:41:03;6.33;;;1.97;;
13959;SDS011;7052;51.050;3.716;2023-01-16T03:43:35;8.27;;;2.80;;
13959;SDS011;7052;51.050;3.716;2023-01-16T03:46:04;6.13;;;2.47;;
13959;SDS011;7052;51.050;3.716;2023-01-16T03:48:37;6.03;;;1.93;;
13959;SDS011;7052;51.050;3.716;2023-01-16T03:51:13;8.20;;;2.27;;
13959;SDS011;7052;51.050;3.716;2023-01-16T03:53:45;5.83;;;2.13;;
13959;SDS011;7052;51.050;3.716;2023-01-16T03:56:20;8.03;;;2.30;;
13959;SDS011;7052;51.050;3.716;2023-01-16T03:58:50;6.23;;;2.10;;
13959;SDS011;7052;51.050;3.716;2023-01-16T04:01:21;5.07;;;2.00;;
13959;SDS011;7052;51.050;3.716;2023-01-16T04:03:53;5.27;;;2.30;;
13959;SDS011;7052;51.050;3.716;2023-01-16T04:06:29;5.30;;;1.83;;
13959;SDS011;7052;51.050;3.716;2023-01-16T04:08:59;6.47;;;2.00;;
13959;SDS011;7052;51.050;3.716;2023-01-16T04:11:30;6.40;;;1.70;;
13959;SDS011;7052;51.050;3.716;2023-01-16T04:14:00;5.53;;;2.10;;
13959;SDS011;7052;51.050;3.716;2023-01-16T04:16:30;4.43;;;2.20;;
13959;SDS011;7052;51.050;3.716;2023-01-16T04:18:58;3.60;;;1.90;;
13959;SDS011;7052;51.050;3.716;2023-01-16T04:21:29;6.47;;;2.07;;
13959;SDS011;7052;51.050;3.716;2023-01-16T04:23:56;5.93;;;2.17;;
13959;SDS011;7052;51.050;3.716;2023-01-16T04:26:26;5.50;;;2.03;;
13959;SDS011;7052;51.050;3.716;2023-01-16T04:28:54;6.77;;;1.80;;
13959;SDS011;7052;51.050;3.716;2023-01-16T04:31:22;5.27;;;2.10;;
13959;SDS011;7052;51.050;3.716;2023-01-16T04:33:50;6.80;;;2.10;;
13959;SDS011;7052;51.050;3.716;2023-01-16T04:36:18;6.97;;;2.30;;
13959;SDS011;7052;51.050;3.716;2023-01-16T04:38:46;2.97;;;1.90;;
13959;SDS011;7052;51.050;3.716;2023-01-16T04:41:13;2.57;;;1.77;;
13959;SDS011;7052;51.050;3.716;2023-01-16T04:44:00;5.57;;;1.90;;
13959;SDS011;7052;51.050;3.716;2023-01-16T04:46:27;5.33;;;2.00;;
13959;SDS011;7052;51.050;3.716;2023-01-16T04:48:54;4.37;;;1.97;;
13959;SDS011;7052;51.050;3.716;2023-01-16T04:51:21;5.77;;;2.43;;
13959;SDS011;7052;51.050;3.716;2023-01-16T04:53:53;5.30;;;1.93;;
13959;SDS011;7052;51.050;3.716;2023-01-16T04:56:24;4.57;;;1.57;;
13959;SDS011;7052;51.050;3.716;2023-01-16T04:58:51;4.33;;;2.00;;
13959;SDS011;7052;51.050;3.716;2023-01-16T05:01:18;4.83;;;1.77;;
13959;SDS011;7052;51.050;3.716;2023-01-16T05:03:45;4.70;;;1.80;;
13959;SDS011;7052;51.050;3.716;2023-01-16T05:06:15;3.67;;;1.63;;
13959;SDS011;7052;51.050;3.716;2023-01-16T05:08:45;4.27;;;1.70;;
13959;SDS011;7052;51.050;3.716;2023-01-16T05:11:13;5.00;;;1.80;;
13959;SDS011;7052;51.050;3.716;2023-01-16T05:13:40;4.23;;;1.60;;
13959;SDS011;7052;51.050;3.716;2023-01-16T05:16:07;4.53;;;1.70;;
13959;SDS011;7052;51.050;3.716;2023-01-16T05:18:34;5.80;;;1.63;;
13959;SDS011;7052;51.050;3.716;2023-01-16T05:21:01;2.80;;;1.40;;
13959;SDS011;7052;51.050;3.716;2023-01-16T05:23:30;4.67;;;1.80;;
13959;SDS011;7052;51.050;3.716;2023-01-16T05:26:02;5.87;;;1.70;;
13959;SDS011;7052;51.050;3.716;2023-01-16T05:28:33;2.23;;;1.13;;
13959;SDS011;7052;51.050;3.716;2023-01-16T05:31:02;2.87;;;1.57;;
13959;SDS011;7052;51.050;3.716;2023-01-16T05:33:30;2.23;;;1.23;;
13959;SDS011;7052;51.050;3.716;2023-01-16T05:36:03;2.20;;;1.27;;
13959;SDS011;7052;51.050;3.716;2023-01-16T05:38:30;2.30;;;1.33;;
13959;SDS011;7052;51.050;3.716;2023-01-16T05:40:57;4.37;;;1.40;;
13959;SDS011;7052;51.050;3.716;2023-01-16T05:43:24;2.40;;;1.17;;
13959;SDS011;7052;51.050;3.716;2023-01-16T05:45:54;3.10;;;1.20;;
13959;SDS011;7052;51.050;3.716;2023-01-16T05:48:23;4.07;;;1.40;;
13959;SDS011;7052;51.050;3.716;2023-01-16T05:50:53;3.10;;;1.30;;
13959;SDS011;7052;51.050;3.716;2023-01-16T05:53:20;2.40;;;1.30;;
13959;SDS011;7052;51.050;3.716;2023-01-16T05:58:16;3.57;;;1.10;;
13959;SDS011;7052;51.050;3.716;2023-01-16T06:00:44;2.20;;;1.07;;
13959;SDS011;7052;51.050;3.716;2023-01-16T06:05:48;1.63;;;1.20;;
13959;SDS011;7052;51.050;3.716;2023-01-16T06:08:15;2.07;;;1.20;;
13959;SDS011;7052;51.050;3.716;2023-01-16T06:10:43;2.43;;;1.10;;
13959;SDS011;7052;51.050;3.716;2023-01-16T06:13:10;1.63;;;1.00;;
13959;SDS011;7052;51.050;3.716;2023-01-16T06:15:37;4.03;;;1.07;;
13959;SDS011;7052;51.050;3.716;2023-01-16T06:18:04;2.87;;;1.00;;
13959;SDS011;7052;51.050;3.716;2023-01-16T06:20:34;2.10;;;0.97;;
13959;SDS011;7052;51.050;3.716;2023-01-16T06:23:03;2.97;;;0.80;;
13959;SDS011;7052;51.050;3.716;2023-01-16T06:25:29;1.70;;;0.90;;
13959;SDS011;7052;51.050;3.716;2023-01-16T06:27:56;1.73;;;1.17;;
13959;SDS011;7052;51.050;3.716;2023-01-16T06:30:23;0.73;;;0.70;;
13959;SDS011;7052;51.050;3.716;2023-01-16T06:32:53;0.70;;;0.70;;
13959;SDS011;7052;51.050;3.716;2023-01-16T06:35:21;1.60;;;0.97;;
13959;SDS011;7052;51.050;3.716;2023-01-16T06:37:49;2.23;;;1.03;;
13959;SDS011;7052;51.050;3.716;2023-01-16T06:40:16;1.00;;;0.80;;
13959;SDS011;7052;51.050;3.716;2023-01-16T06:42:44;0.83;;;0.70;;
13959;SDS011;7052;51.050;3.716;2023-01-16T06:45:12;1.37;;;0.90;;
13959;SDS011;7052;51.050;3.716;2023-01-16T06:47:39;1.57;;;1.00;;
13959;SDS011;7052;51.050;3.716;2023-01-16T06:50:08;1.20;;;1.10;;
13959;SDS011;7052;51.050;3.716;2023-01-16T06:52:37;1.03;;;0.97;;
13959;SDS011;7052;51.050;3.716;2023-01-16T06:55:08;0.83;;;0.80;;
13959;SDS011;7052;51.050;3.716;2023-01-16T06:57:37;1.70;;;0.70;;
13959;SDS011;7052;51.050;3.716;2023-01-16T07:00:05;0.93;;;0.90;;
13959;SDS011;7052;51.050;3.716;2023-01-16T07:02:32;1.50;;;0.97;;
13959;SDS011;7052;51.050;3.716;2023-01-16T07:05:04;1.10;;;1.00;;
13959;SDS011;7052;51.050;3.716;2023-01-16T07:07:32;0.90;;;0.90;;
13959;SDS011;7052;51.050;3.716;2023-01-16T07:09:59;1.40;;;1.30;;
13959;SDS011;7052;51.050;3.716;2023-01-16T07:12:28;1.03;;;0.93;;
13959;SDS011;7052;51.050;3.716;2023-01-16T07:14:55;1.73;;;1.00;;
13959;SDS011;7052;51.050;3.716;2023-01-16T07:17:40;1.97;;;1.10;;
13959;SDS011;7052;51.050;3.716;2023-01-16T07:20:23;2.23;;;1.10;;
13959;SDS011;7052;51.050;3.716;2023-01-16T07:23:12;0.87;;;0.80;;
13959;SDS011;7052;51.050;3.716;2023-01-16T07:25:43;2.50;;;1.37;;
13959;SDS011;7052;51.050;3.716;2023-01-16T07:28:13;0.80;;;0.70;;
13959;SDS011;7052;51.050;3.716;2023-01-16T07:30:41;1.60;;;1.00;;
13959;SDS011;7052;51.050;3.716;2023-01-16T07:33:11;1.70;;;1.10;;
13959;SDS011;7052;51.050;3.716;2023-01-16T07:35:39;1.43;;;0.90;;
13959;SDS011;7052;51.050;3.716;2023-01-16T07:38:07;1.80;;;0.90;;
13959;SDS011;7052;51.050;3.716;2023-01-16T07:40:34;1.20;;;0.90;;
13959;SDS011;7052;51.050;3.716;2023-01-16T07:43:04;2.43;;;1.00;;
13959;SDS011;7052;51.050;3.716;2023-01-16T07:45:33;1.40;;;0.97;;
13959;SDS011;7052;51.050;3.716;2023-01-16T07:48:00;1.60;;;0.80;;
13959;SDS011;7052;51.050;3.716;2023-01-16T07:50:27;0.87;;;0.83;;
13959;SDS011;7052;51.050;3.716;2023-01-16T07:52:55;3.10;;;1.20;;
13959;SDS011;7052;51.050;3.716;2023-01-16T07:55:22;1.63;;;0.80;;
13959;SDS011;7052;51.050;3.716;2023-01-16T07:57:50;2.03;;;1.00;;
13959;SDS011;7052;51.050;3.716;2023-01-16T08:00:21;1.73;;;1.13;;
13959;SDS011;7052;51.050;3.716;2023-01-16T08:02:50;2.47;;;1.10;;
13959;SDS011;7052;51.050;3.716;2023-01-16T08:05:19;1.00;;;0.90;;
13959;SDS011;7052;51.050;3.716;2023-01-16T08:07:46;0.70;;;0.70;;
13959;SDS011;7052;51.050;3.716;2023-01-16T08:10:16;1.07;;;0.90;;
13959;SDS011;7052;51.050;3.716;2023-01-16T08:12:43;1.50;;;1.17;;
13959;SDS011;7052;51.050;3.716;2023-01-16T08:15:12;1.73;;;0.97;;
13959;SDS011;7052;51.050;3.716;2023-01-16T08:17:39;1.87;;;1.20;;
13959;SDS011;7052;51.050;3.716;2023-01-16T08:20:09;2.40;;;1.07;;
13959;SDS011;7052;51.050;3.716;2023-01-16T08:22:41;1.83;;;1.10;;
13959;SDS011;7052;51.050;3.716;2023-01-16T08:25:09;4.10;;;1.20;;
13959;SDS011;7052;51.050;3.716;2023-01-16T08:27:38;2.33;;;1.20;;
13959;SDS011;7052;51.050;3.716;2023-01-16T08:30:05;2.50;;;1.27;;
13959;SDS011;7052;51.050;3.716;2023-01-16T08:32:33;2.33;;;1.20;;
13959;SDS011;7052;51.050;3.716;2023-01-16T08:35:04;2.60;;;1.20;;
13959;SDS011;7052;51.050;3.716;2023-01-16T08:37:36;2.77;;;1.37;;
13959;SDS011;7052;51.050;3.716;2023-01-16T08:40:04;1.50;;;1.10;;
13959;SDS011;7052;51.050;3.716;2023-01-16T08:42:33;2.57;;;1.60;;
13959;SDS011;7052;51.050;3.716;2023-01-16T08:45:17;2.00;;;1.20;;
13959;SDS011;7052;51.050;3.716;2023-01-16T08:48:03;1.30;;;1.10;;
13959;SDS011;7052;51.050;3.716;2023-01-16T08:50:48;2.63;;;1.50;;
13959;SDS011;7052;51.050;3.716;2023-01-16T08:53:36;4.30;;;3.30;;
13959;SDS011;7052;51.050;3.716;2023-01-16T08:56:04;4.43;;;1.50;;
13959;SDS011;7052;51.050;3.716;2023-01-16T08:58:31;1.50;;;1.10;;
13959;SDS011;7052;51.050;3.716;2023-01-16T09:00:58;1.10;;;0.97;;
13959;SDS011;7052;51.050;3.716;2023-01-16T09:03:25;1.93;;;1.10;;
13959;SDS011;7052;51.050;3.716;2023-01-16T09:05:52;2.67;;;1.17;;
13959;SDS011;7052;51.050;3.716;2023-01-16T09:08:19;1.53;;;1.27;;
13959;SDS011;7052;51.050;3.716;2023-01-16T09:10:51;1.50;;;1.40;;
13959;SDS011;7052;51.050;3.716;2023-01-16T09:13:35;1.70;;;1.17;;
13959;SDS011;7052;51.050;3.716;2023-01-16T09:16:15;3.80;;;1.30;;
13959;SDS011;7052;51.050;3.716;2023-01-16T09:18:42;3.17;;;1.10;;
13959;SDS011;7052;51.050;3.716;2023-01-16T09:21:10;2.23;;;1.10;;
13959;SDS011;7052;51.050;3.716;2023-01-16T09:23:37;2.00;;;1.10;;
13959;SDS011;7052;51.050;3.716;2023-01-16T09:26:06;1.13;;;1.03;;
13959;SDS011;7052;51.050;3.716;2023-01-16T09:28:34;2.43;;;1.30;;
13959;SDS011;7052;51.050;3.716;2023-01-16T09:31:03;2.40;;;1.30;;
13959;SDS011;7052;51.050;3.716;2023-01-16T09:33:30;1.57;;;1.20;;
13959;SDS011;7052;51.050;3.716;2023-01-16T09:35:57;2.27;;;1.40;;
13959;SDS011;7052;51.050;3.716;2023-01-16T09:38:25;2.83;;;1.40;;
13959;SDS011;7052;51.050;3.716;2023-01-16T09:40:53;2.20;;;1.07;;
13959;SDS011;7052;51.050;3.716;2023-01-16T09:43:35;1.43;;;0.77;;
13959;SDS011;7052;51.050;3.716;2023-01-16T09:46:09;1.67;;;1.10;;
13959;SDS011;7052;51.050;3.716;2023-01-16T09:48:59;0.70;;;0.70;;
13959;SDS011;7052;51.050;3.716;2023-01-16T09:51:31;1.00;;;0.90;;
13959;SDS011;7052;51.050;3.716;2023-01-16T09:54:06;0.93;;;0.73;;
13959;SDS011;7052;51.050;3.716;2023-01-16T09:56:56;1.43;;;1.33;;
13959;SDS011;7052;51.050;3.716;2023-01-16T09:59:47;1.97;;;1.30;;
13959;SDS011;7052;51.050;3.716;2023-01-16T10:02:19;0.80;;;0.70;;
13959;SDS011;7052;51.050;3.716;2023-01-16T10:04:50;0.90;;;0.90;;
13959;SDS011;7052;51.050;3.716;2023-01-16T10:10:19;0.80;;;0.80;;
13959;SDS011;7052;51.050;3.716;2023-01-16T10:13:02;1.00;;;0.87;;
13959;SDS011;7052;51.050;3.716;2023-01-16T10:15:44;1.00;;;0.90;;
13959;SDS011;7052;51.050;3.716;2023-01-16T10:18:23;1.60;;;0.90;;
13959;SDS011;7052;51.050;3.716;2023-01-16T10:21:20;3.83;;;1.03;;
13959;SDS011;7052;51.050;3.716;2023-01-16T10:24:02;0.90;;;0.83;;
13959;SDS011;7052;51.050;3.716;2023-01-16T10:26:42;1.40;;;1.10;;
13959;SDS011;7052;51.050;3.716;2023-01-16T10:29:22;1.20;;;0.93;;
13959;SDS011;7052;51.050;3.716;2023-01-16T10:31:56;0.90;;;0.73;;
13959;SDS011;7052;51.050;3.716;2023-01-16T10:34:33;0.97;;;0.70;;
13959;SDS011;7052;51.050;3.716;2023-01-16T10:37:08;1.17;;;0.80;;
13959;SDS011;7052;51.050;3.716;2023-01-16T10:39:40;1.43;;;1.07;;
13959;SDS011;7052;51.050;3.716;2023-01-16T10:42:10;0.90;;;0.70;;
13959;SDS011;7052;51.050;3.716;2023-01-16T10:45:10;0.77;;;0.60;;
13959;SDS011;7052;51.050;3.716;2023-01-16T10:48:02;1.10;;;1.00;;
13959;SDS011;7052;51.050;3.716;2023-01-16T10:50:48;2.23;;;1.03;;
13959;SDS011;7052;51.050;3.716;2023-01-16T10:53:16;1.00;;;0.90;;
13959;SDS011;7052;51.050;3.716;2023-01-16T10:55:44;1.40;;;1.00;;
13959;SDS011;7052;51.050;3.716;2023-01-16T10:58:20;1.77;;;1.17;;
13959;SDS011;7052;51.050;3.716;2023-01-16T11:00:51;1.73;;;1.17;;
13959;SDS011;7052;51.050;3.716;2023-01-16T11:03:31;1.83;;;1.30;;
13959;SDS011;7052;51.050;3.716;2023-01-16T11:06:08;1.93;;;1.50;;
13959;SDS011;7052;51.050;3.716;2023-01-16T11:08:40;1.40;;;0.90;;
13959;SDS011;7052;51.050;3.716;2023-01-16T11:11:09;1.00;;;0.90;;
13959;SDS011;7052;51.050;3.716;2023-01-16T11:13:58;1.30;;;0.80;;
13959;SDS011;7052;51.050;3.716;2023-01-16T11:16:44;1.00;;;0.90;;
13959;SDS011;7052;51.050;3.716;2023-01-16T11:19:39;1.07;;;0.90;;
13959;SDS011;7052;51.050;3.716;2023-01-16T11:22:20;1.00;;;0.93;;
13959;SDS011;7052;51.050;3.716;2023-01-16T11:24:50;3.87;;;1.60;;
13959;SDS011;7052;51.050;3.716;2023-01-16T11:27:22;1.20;;;1.10;;
13959;SDS011;7052;51.050;3.716;2023-01-16T11:29:52;1.90;;;1.10;;
13959;SDS011;7052;51.050;3.716;2023-01-16T11:32:22;4.23;;;1.60;;
13959;SDS011;7052;51.050;3.716;2023-01-16T11:34:55;1.20;;;1.10;;
13959;SDS011;7052;51.050;3.716;2023-01-16T11:37:24;2.23;;;1.30;;
13959;SDS011;7052;51.050;3.716;2023-01-16T11:39:55;2.63;;;1.30;;
13959;SDS011;7052;51.050;3.716;2023-01-16T11:42:32;3.60;;;1.40;;
13959;SDS011;7052;51.050;3.716;2023-01-16T11:45:18;1.37;;;0.90;;
13959;SDS011;7052;51.050;3.716;2023-01-16T11:48:07;1.97;;;1.00;;
13959;SDS011;7052;51.050;3.716;2023-01-16T11:51:12;1.73;;;1.30;;
13959;SDS011;7052;51.050;3.716;2023-01-16T11:53:41;3.23;;;1.60;;
13959;SDS011;7052;51.050;3.716;2023-01-16T11:56:21;1.70;;;1.10;;
13959;SDS011;7052;51.050;3.716;2023-01-16T12:02:04;1.93;;;1.20;;
13959;SDS011;7052;51.050;3.716;2023-01-16T12:04:46;1.87;;;1.27;;
13959;SDS011;7052;51.050;3.716;2023-01-16T12:07:41;3.07;;;1.30;;
13959;SDS011;7052;51.050;3.716;2023-01-16T12:10:24;1.90;;;1.50;;
13959;SDS011;7052;51.050;3.716;2023-01-16T12:13:03;5.07;;;1.60;;
13959;SDS011;7052;51.050;3.716;2023-01-16T12:15:56;1.67;;;1.23;;
13959;SDS011;7052;51.050;3.716;2023-01-16T12:18:34;3.60;;;1.50;;
13959;SDS011;7052;51.050;3.716;2023-01-16T12:21:19;4.03;;;1.50;;
13959;SDS011;7052;51.050;3.716;2023-01-16T12:26:50;3.43;;;2.00;;
13959;SDS011;7052;51.050;3.716;2023-01-16T12:29:32;2.43;;;1.60;;
13959;SDS011;7052;51.050;3.716;2023-01-16T12:32:13;2.20;;;1.53;;
13959;SDS011;7052;51.050;3.716;2023-01-16T12:35:00;2.63;;;1.73;;
13959;SDS011;7052;51.050;3.716;2023-01-16T12:37:43;3.23;;;1.53;;
13959;SDS011;7052;51.050;3.716;2023-01-16T12:40:26;3.43;;;1.70;;
13959;SDS011;7052;51.050;3.716;2023-01-16T12:43:04;6.90;;;1.97;;
13959;SDS011;7052;51.050;3.716;2023-01-16T12:45:48;2.20;;;1.60;;
13959;SDS011;7052;51.050;3.716;2023-01-16T12:54:26;3.57;;;2.30;;
13959;SDS011;7052;51.050;3.716;2023-01-16T12:57:26;3.30;;;2.10;;
13959;SDS011;7052;51.050;3.716;2023-01-16T13:00:08;4.03;;;1.90;;
13959;SDS011;7052;51.050;3.716;2023-01-16T13:02:39;2.30;;;2.00;;
13959;SDS011;7052;51.050;3.716;2023-01-16T13:05:12;1.97;;;1.67;;
13959;SDS011;7052;51.050;3.716;2023-01-16T13:07:44;4.97;;;2.00;;
13959;SDS011;7052;51.050;3.716;2023-01-16T13:10:18;3.57;;;1.67;;
13959;SDS011;7052;51.050;3.716;2023-01-16T13:13:09;2.47;;;1.70;;
13959;SDS011;7052;51.050;3.716;2023-01-16T13:15:53;2.10;;;1.57;;
13959;SDS011;7052;51.050;3.716;2023-01-16T13:18:31;1.83;;;1.30;;
13959;SDS011;7052;51.050;3.716;2023-01-16T13:21:04;3.00;;;1.70;;
13959;SDS011;7052;51.050;3.716;2023-01-16T13:23:39;1.53;;;1.43;;
13959;SDS011;7052;51.050;3.716;2023-01-16T13:26:11;2.47;;;1.50;;
13959;SDS011;7052;51.050;3.716;2023-01-16T13:28:43;1.77;;;1.33;;
13959;SDS011;7052;51.050;3.716;2023-01-16T13:31:19;3.67;;;1.87;;
13959;SDS011;7052;51.050;3.716;2023-01-16T13:33:55;1.70;;;1.33;;
13959;SDS011;7052;51.050;3.716;2023-01-16T13:39:38;1.83;;;1.63;;
13959;SDS011;7052;51.050;3.716;2023-01-16T13:42:19;1.60;;;1.40;;
13959;SDS011;7052;51.050;3.716;2023-01-16T13:44:54;1.70;;;1.40;;
13959;SDS011;7052;51.050;3.716;2023-01-16T13:47:41;1.50;;;1.30;;
13959;SDS011;7052;51.050;3.716;2023-01-16T13:50:15;1.40;;;1.30;;
13959;SDS011;7052;51.050;3.716;2023-01-16T13:52:45;1.60;;;1.50;;
13959;SDS011;7052;51.050;3.716;2023-01-16T13:55:21;2.07;;;1.60;;
13959;SDS011;7052;51.050;3.716;2023-01-16T13:57:56;2.27;;;1.50;;
13959;SDS011;7052;51.050;3.716;2023-01-16T14:00:34;1.93;;;1.40;;
13959;SDS011;7052;51.050;3.716;2023-01-16T14:03:16;1.77;;;1.53;;
13959;SDS011;7052;51.050;3.716;2023-01-16T14:05:47;2.53;;;1.80;;
13959;SDS011;7052;51.050;3.716;2023-01-16T14:08:20;2.47;;;2.00;;
13959;SDS011;7052;51.050;3.716;2023-01-16T14:11:37;1.67;;;1.57;;
13959;SDS011;7052;51.050;3.716;2023-01-16T14:14:27;2.00;;;1.80;;
13959;SDS011;7052;51.050;3.716;2023-01-16T14:20:41;2.10;;;2.00;;
13959;SDS011;7052;51.050;3.716;2023-01-16T14:23:17;2.20;;;2.00;;
13959;SDS011;7052;51.050;3.716;2023-01-16T14:26:05;5.77;;;1.30;;
13959;SDS011;7052;51.050;3.716;2023-01-16T14:28:33;1.00;;;0.90;;
13959;SDS011;7052;51.050;3.716;2023-01-16T14:31:01;1.90;;;1.20;;
13959;SDS011;7052;51.050;3.716;2023-01-16T14:33:29;1.50;;;1.17;;
13959;SDS011;7052;51.050;3.716;2023-01-16T14:35:57;1.47;;;0.90;;
13959;SDS011;7052;51.050;3.716;2023-01-16T14:38:27;1.50;;;1.30;;
13959;SDS011;7052;51.050;3.716;2023-01-16T14:41:00;1.13;;;1.03;;
13959;SDS011;7052;51.050;3.716;2023-01-16T14:44:10;1.00;;;0.90;;
13959;SDS011;7052;51.050;3.716;2023-01-16T14:47:06;1.70;;;1.17;;
13959;SDS011;7052;51.050;3.716;2023-01-16T14:50:00;1.30;;;1.00;;
13959;SDS011;7052;51.050;3.716;2023-01-16T14:52:51;1.97;;;1.40;;
13959;SDS011;7052;51.050;3.716;2023-01-16T14:55:46;1.50;;;1.30;;
13959;SDS011;7052;51.050;3.716;2023-01-16T14:58:19;2.47;;;1.87;;
13959;SDS011;7052;51.050;3.716;2023-01-16T15:00:54;1.97;;;1.20;;
13959;SDS011;7052;51.050;3.716;2023-01-16T15:03:37;1.87;;;1.40;;
13959;SDS011;7052;51.050;3.716;2023-01-16T15:06:08;1.83;;;1.10;;
13959;SDS011;7052;51.050;3.716;2023-01-16T15:08:36;1.27;;;0.97;;
13959;SDS011;7052;51.050;3.716;2023-01-16T15:11:08;1.80;;;1.07;;
13959;SDS011;7052;51.050;3.716;2023-01-16T15:14:04;2.83;;;0.70;;
13959;SDS011;7052;51.050;3.716;2023-01-16T15:16:54;3.83;;;1.33;;
13959;SDS011;7052;51.050;3.716;2023-01-16T15:19:57;4.00;;;1.40;;
13959;SDS011;7052;51.050;3.716;2023-01-16T15:22:46;4.17;;;1.40;;
13959;SDS011;7052;51.050;3.716;2023-01-16T15:25:23;2.30;;;1.20;;
13959;SDS011;7052;51.050;3.716;2023-01-16T15:28:08;3.10;;;1.20;;
13959;SDS011;7052;51.050;3.716;2023-01-16T15:30:43;1.43;;;1.10;;
13959;SDS011;7052;51.050;3.716;2023-01-16T15:33:22;3.10;;;1.00;;
13959;SDS011;7052;51.050;3.716;2023-01-16T15:36:17;2.90;;;1.10;;
13959;SDS011;7052;51.050;3.716;2023-01-16T15:38:49;3.97;;;1.73;;
13959;SDS011;7052;51.050;3.716;2023-01-16T15:41:21;2.57;;;1.53;;
13959;SDS011;7052;51.050;3.716;2023-01-16T15:44:12;1.57;;;1.00;;
13959;SDS011;7052;51.050;3.716;2023-01-16T15:47:02;4.23;;;1.30;;
13959;SDS011;7052;51.050;3.716;2023-01-16T15:49:46;4.63;;;1.30;;
13959;SDS011;7052;51.050;3.716;2023-01-16T15:52:26;1.47;;;1.00;;
13959;SDS011;7052;51.050;3.716;2023-01-16T15:54:56;4.30;;;1.30;;
13959;SDS011;7052;51.050;3.716;2023-01-16T15:57:23;2.57;;;1.20;;
13959;SDS011;7052;51.050;3.716;2023-01-16T15:59:51;1.97;;;0.90;;
13959;SDS011;7052;51.050;3.716;2023-01-16T16:02:23;2.87;;;1.10;;
13959;SDS011;7052;51.050;3.716;2023-01-16T16:04:54;1.73;;;1.20;;
13959;SDS011;7052;51.050;3.716;2023-01-16T16:07:28;1.77;;;1.20;;
13959;SDS011;7052;51.050;3.716;2023-01-16T16:09:58;4.27;;;1.60;;